Time;durP1;ratioP1;P1;durP2;ratioP2;P2;SDS_P1;SDS_P2;PMS_P1;PMS_P2;Temp;Humidity;BMP_temperature;BMP_pressure;BME280_temperature;BME280_humidity;BME280_pressure;Samples;Min_cycle;Max_cycle;Signal;HPM_P1;HPM_P2
2023/09/23 00:00:19;;;;;;;;;;;;;;;21.87;70.61;96942.25;597561;237;68670;-67
2023/09/23 00:02:49;;;;;;;;;;;;;;;21.86;70.62;96941.45;597614;237;68741;-67
2023/09/23 00:05:16;;;;;;;;;;;;;;;21.87;70.86;96942.25;597606;237;65119;-67
2023/09/23 00:07:44;;;;;;;;;;;;;;;21.87;70.42;96948.39;597556;237;68873;-66
2023/09/23 00:10:12;;;;;;;;;;;;;;;21.86;70.78;96949.48;597600;237;66425;-67
2023/09/23 00:12:43;;;;;;;;;;;;;;;21.86;70.86;96936.11;597599;237;65079;-66
2023/09/23 00:15:11;;;;;;;;;;;;;;;21.86;70.61;96938.78;597585;237;66492;-67
2023/09/23 00:17:40;;;;;;;;;;;;;;;21.86;70.77;96946.80;597608;237;68469;-66
2023/09/23 00:20:16;;;;;;;;;;;;;;;21.86;70.64;96946.80;597572;237;65037;-67
2023/09/23 00:22:40;;;;;;;;;;;;;;;21.86;70.74;96936.11;597306;237;68858;-67
2023/09/23 00:25:08;;;;;;;;;;;;;;;21.86;70.46;96935.31;597554;237;69207;-67
2023/09/23 00:27:35;;;;;;;;;;;;;;;21.86;70.87;96936.11;597561;237;64920;-67
2023/09/23 00:30:05;;;;;;;;;;;;;;;21.86;70.43;96946.80;597576;237;69378;-67
2023/09/23 00:32:37;;;;;;;;;;;;;;;21.86;70.70;96938.78;596010;237;66380;-67
2023/09/23 00:35:05;;;;;;;;;;;;;;;21.85;70.76;96934.52;595537;238;62156;-67
2023/09/23 00:37:32;;;;;;;;;;;;;;;21.85;70.55;96931.84;595528;238;68870;-66
2023/09/23 00:40:00;;;;;;;;;;;;;;;21.86;70.93;96929.96;595543;238;69357;-66
2023/09/23 00:42:27;;;;;;;;;;;;;;;21.85;70.92;96929.17;595563;238;63830;-66
2023/09/23 00:44:55;;;;;;;;;;;;;;;21.85;71.20;96929.17;595564;238;66035;-66
2023/09/23 00:47:23;;;;;;;;;;;;;;;21.85;71.58;96923.81;595535;238;69034;-66
2023/09/23 00:49:50;;;;;;;;;;;;;;;21.86;71.19;96929.96;595505;238;62928;-66
2023/09/23 00:52:18;;;;;;;;;;;;;;;21.85;71.27;96922.99;595504;238;69260;-66
2023/09/23 00:54:46;;;;;;;;;;;;;;;21.85;71.39;96929.17;595551;238;68650;-66
2023/09/23 00:57:14;;;;;;;;;;;;;;;21.85;71.01;96931.02;595579;238;65286;-66
2023/09/23 00:59:43;;;;;;;;;;;;;;;21.84;70.71;96927.55;595538;238;66339;-66
2023/09/23 01:02:13;;;;;;;;;;;;;;;21.85;70.57;96933.70;595557;238;68651;-66
2023/09/23 01:04:40;;;;;;;;;;;;;;;21.85;70.66;96939.05;595518;238;62833;-66
2023/09/23 01:07:09;;;;;;;;;;;;;;;21.84;70.60;96938.25;595546;238;69554;-66
2023/09/23 01:09:37;;;;;;;;;;;;;;;21.85;70.43;96939.87;595562;238;68768;-66
2023/09/23 01:12:08;;;;;;;;;;;;;;;21.85;70.51;96933.70;595521;238;65209;-66
2023/09/23 01:14:34;;;;;;;;;;;;;;;21.84;70.82;96938.25;595441;238;68938;-66
2023/09/23 01:17:10;;;;;;;;;;;;;;;21.85;70.98;96933.70;595543;238;68846;-66
2023/09/23 01:19:31;;;;;;;;;;;;;;;21.84;71.03;96935.58;595208;238;65085;-66
2023/09/23 01:21:58;;;;;;;;;;;;;;;21.84;70.98;96932.11;595580;238;68613;-66
2023/09/23 01:24:30;;;;;;;;;;;;;;;21.84;71.06;96937.45;595567;238;68677;-66
2023/09/23 01:26:55;;;;;;;;;;;;;;;21.84;70.70;96940.13;595465;238;62510;-66
2023/09/23 01:29:23;;;;;;;;;;;;;;;21.83;70.66;96933.98;595534;238;69008;-66
2023/09/23 01:32:10;;;;;;;;;;;;;;;21.84;70.80;96934.78;596487;237;68432;-66
2023/09/23 01:34:38;;;;;;;;;;;;;;;21.84;70.29;96932.11;597556;237;62692;-66
2023/09/23 01:37:05;;;;;;;;;;;;;;;21.84;70.65;96929.44;597513;237;69027;-66
2023/09/23 01:39:34;;;;;;;;;;;;;;;21.84;70.37;96932.11;597537;237;66693;-66
2023/09/23 01:42:01;;;;;;;;;;;;;;;21.82;70.82;96929.70;597561;237;65044;-66
2023/09/23 01:44:30;;;;;;;;;;;;;;;21.83;70.52;96925.97;597588;237;66399;-66
2023/09/23 01:46:57;;;;;;;;;;;;;;;21.84;70.47;96926.76;597594;237;69747;-66
2023/09/23 01:49:25;;;;;;;;;;;;;;;21.83;70.55;96928.64;597512;237;65106;-66
2023/09/23 01:51:52;;;;;;;;;;;;;;;21.83;70.99;96933.98;597573;237;66346;-66
2023/09/23 01:54:20;;;;;;;;;;;;;;;21.83;70.74;96927.84;597558;237;67202;-66
2023/09/23 01:56:47;;;;;;;;;;;;;;;21.83;70.61;96925.97;597565;237;65233;-66
2023/09/23 01:59:15;;;;;;;;;;;;;;;21.83;70.54;96927.84;597630;237;68501;-66
2023/09/23 02:01:43;;;;;;;;;;;;;;;21.84;70.67;96930.22;597547;237;68680;-66
2023/09/23 02:04:11;;;;;;;;;;;;;;;21.83;70.64;96933.98;597528;237;65147;-66
2023/09/23 02:06:41;;;;;;;;;;;;;;;21.83;70.71;96922.50;597567;237;69510;-66
2023/09/23 02:09:09;;;;;;;;;;;;;;;21.83;70.52;96935.88;597553;237;69579;-66
2023/09/23 02:11:37;;;;;;;;;;;;;;;21.83;70.62;96936.66;597547;237;65014;-66
2023/09/23 02:14:05;;;;;;;;;;;;;;;21.83;70.62;96936.66;597620;237;69020;-66
2023/09/23 02:16:33;;;;;;;;;;;;;;;21.83;70.87;96939.34;597534;237;68543;-66
2023/09/23 02:19:02;;;;;;;;;;;;;;;21.83;70.89;96939.34;597603;237;65109;-66
2023/09/23 02:21:30;;;;;;;;;;;;;;;21.82;71.02;96940.39;597607;237;69026;-66
2023/09/23 02:23:58;;;;;;;;;;;;;;;21.82;70.65;96943.08;597578;237;68571;-66
2023/09/23 02:26:27;;;;;;;;;;;;;;;21.82;70.85;96956.45;597621;237;62761;-66
2023/09/23 02:28:55;;;;;;;;;;;;;;;21.83;70.91;96946.58;597511;237;68462;-66
2023/09/23 02:31:22;;;;;;;;;;;;;;;21.83;71.01;96946.58;597001;237;66146;-67
2023/09/23 02:33:50;;;;;;;;;;;;;;;21.82;70.85;96950.30;595554;238;62802;-67
2023/09/23 02:36:17;;;;;;;;;;;;;;;21.81;70.93;96949.52;595546;238;66220;-66
2023/09/23 02:38:45;;;;;;;;;;;;;;;21.82;71.10;96950.30;595604;238;69361;-66
2023/09/23 02:41:14;;;;;;;;;;;;;;;21.81;71.08;96954.86;595523;238;63762;-66
2023/09/23 02:43:41;;;;;;;;;;;;;;;21.82;71.22;96948.42;595509;238;66466;-66
2023/09/23 02:46:09;;;;;;;;;;;;;;;21.82;71.16;96961.01;595543;238;68501;-66
2023/09/23 02:48:37;;;;;;;;;;;;;;;21.81;71.28;96952.19;595533;238;62777;-66
2023/09/23 02:51:05;;;;;;;;;;;;;;;21.80;71.12;96945.25;595566;238;69230;-66
2023/09/23 02:53:32;;;;;;;;;;;;;;;21.81;71.22;96943.37;595550;238;69004;-67
2023/09/23 02:56:07;;;;;;;;;;;;;;;21.81;71.38;96948.72;595520;238;65120;-67
2023/09/23 02:58:38;;;;;;;;;;;;;;;21.80;71.22;96939.90;595506;238;68700;-67
2023/09/23 03:01:05;;;;;;;;;;;;;;;21.80;71.33;96939.90;595537;238;68599;-67
2023/09/23 03:03:40;;;;;;;;;;;;;;;21.81;71.18;96948.72;595523;238;65224;-66
2023/09/23 03:06:06;;;;;;;;;;;;;;;21.80;71.34;96945.25;595247;238;68898;-66
2023/09/23 03:08:37;;;;;;;;;;;;;;;21.80;71.30;96947.10;595503;238;65533;-67
2023/09/23 03:11:05;;;;;;;;;;;;;;;21.81;71.26;96951.39;595488;236;62669;-66
2023/09/23 03:13:31;;;;;;;;;;;;;;;21.80;71.36;96947.92;595300;238;66083;-67
2023/09/23 03:16:08;;;;;;;;;;;;;;;21.79;71.43;96946.31;595536;238;66357;-67
2023/09/23 03:18:33;;;;;;;;;;;;;;;21.79;71.05;96943.63;594764;238;65823;-66
2023/09/23 03:20:59;;;;;;;;;;;;;;;21.80;71.14;96947.10;595427;238;69478;-67
2023/09/23 03:23:27;;;;;;;;;;;;;;;21.79;71.23;96951.66;595422;238;66280;-67
2023/09/23 03:25:56;;;;;;;;;;;;;;;21.80;71.36;96953.27;595526;238;66164;-67
2023/09/23 03:28:25;;;;;;;;;;;;;;;21.79;71.43;96951.66;595505;238;69745;-67
2023/09/23 03:30:54;;;;;;;;;;;;;;;21.79;71.32;96962.36;595631;237;66743;-67
2023/09/23 03:33:22;;;;;;;;;;;;;;;21.79;71.38;96961.56;597448;237;65107;-67
2023/09/23 03:35:50;;;;;;;;;;;;;;;21.79;71.53;96966.91;597558;237;66004;-67
2023/09/23 03:38:18;;;;;;;;;;;;;;;21.80;71.84;96971.17;597562;237;68552;-67
2023/09/23 03:40:56;;;;;;;;;;;;;;;21.78;71.73;96963.45;597589;237;63849;-67
2023/09/23 03:43:24;;;;;;;;;;;;;;;21.78;71.27;96963.45;597543;237;68536;-67
2023/09/23 03:45:52;;;;;;;;;;;;;;;21.79;71.90;96975.73;597548;237;66904;-67
2023/09/23 03:48:20;;;;;;;;;;;;;;;21.78;71.64;96968.80;597625;237;65102;-67
2023/09/23 03:50:52;;;;;;;;;;;;;;;21.79;71.66;96970.38;597541;237;68540;-67
2023/09/23 03:53:23;;;;;;;;;;;;;;;21.78;70.77;96971.47;597546;237;69476;-68
2023/09/23 03:55:55;;;;;;;;;;;;;;;21.78;69.89;96973.35;597592;237;63952;-68
2023/09/23 03:58:22;;;;;;;;;;;;;;;21.78;70.23;96976.81;597574;237;68537;-68
2023/09/23 04:00:50;;;;;;;;;;;;;;;21.78;70.07;96984.84;597634;237;68105;-68
2023/09/23 04:03:17;;;;;;;;;;;;;;;21.78;69.62;96984.84;597599;237;62829;-68
2023/09/23 04:05:45;;;;;;;;;;;;;;;21.79;70.29;96983.76;597606;237;68344;-68
2023/09/23 04:08:12;;;;;;;;;;;;;;;21.79;70.06;96991.78;597577;237;66660;-68
2023/09/23 04:10:40;;;;;;;;;;;;;;;21.78;70.22;96992.87;597600;237;63108;-68
2023/09/23 04:13:09;;;;;;;;;;;;;;;21.79;70.33;96993.66;597626;237;68337;-68
2023/09/23 04:15:37;;;;;;;;;;;;;;;21.78;70.48;96984.84;597603;237;66263;-68
2023/09/23 04:18:05;;;;;;;;;;;;;;;21.77;70.74;96983.26;597588;237;65224;-68
2023/09/23 04:20:33;;;;;;;;;;;;;;;21.78;70.80;96981.38;597621;237;69052;-68
2023/09/23 04:23:00;;;;;;;;;;;;;;;21.77;70.83;96991.28;597579;237;66467;-67
2023/09/23 04:25:28;;;;;;;;;;;;;;;21.77;70.96;96985.93;597619;237;65302;-67
2023/09/23 04:27:55;;;;;;;;;;;;;;;21.78;70.86;96986.72;597625;237;68130;-67
2023/09/23 04:30:25;;;;;;;;;;;;;;;21.77;71.00;96980.58;597603;237;68391;-67
2023/09/23 04:32:52;;;;;;;;;;;;;;;21.77;70.97;96985.11;597549;235;65628;-67
2023/09/23 04:35:20;;;;;;;;;;;;;;;21.76;70.59;96995.02;597592;237;66321;-67
2023/09/23 04:37:48;;;;;;;;;;;;;;;21.76;70.55;96989.66;597603;237;68688;-67
2023/09/23 04:40:18;;;;;;;;;;;;;;;21.77;70.42;96987.78;597625;237;65214;-67
2023/09/23 04:42:45;;;;;;;;;;;;;;;21.77;70.52;96993.95;597572;237;68348;-67
2023/09/23 04:45:13;;;;;;;;;;;;;;;21.76;70.66;96991.55;597602;237;66415;-67
2023/09/23 04:47:40;;;;;;;;;;;;;;;21.76;70.68;96995.02;597594;237;63071;-67
2023/09/23 04:50:16;;;;;;;;;;;;;;;21.76;70.60;97003.03;597622;237;66222;-67
2023/09/23 04:52:46;;;;;;;;;;;;;;;21.76;70.64;96999.57;597619;237;68371;-66
2023/09/23 04:55:13;;;;;;;;;;;;;;;21.76;71.61;97000.36;597597;237;62683;-66
2023/09/23 04:57:41;;;;;;;;;;;;;;;21.76;72.02;96999.57;597577;237;68345;-66
2023/09/23 05:00:16;;;;;;;;;;;;;;;21.76;71.56;97004.92;597602;237;66220;-66
2023/09/23 05:02:41;;;;;;;;;;;;;;;21.76;71.34;97010.27;597508;237;64976;-67
2023/09/23 05:05:12;;;;;;;;;;;;;;;21.76;71.19;97002.24;597581;237;68609;-67
2023/09/23 05:07:40;;;;;;;;;;;;;;;21.76;71.09;97012.94;597645;237;68579;-67
2023/09/23 05:10:09;;;;;;;;;;;;;;;21.74;70.82;97007.86;597597;237;64963;-67
2023/09/23 05:12:36;;;;;;;;;;;;;;;21.75;70.59;97016.70;597568;237;66359;-67
2023/09/23 05:15:04;;;;;;;;;;;;;;;21.75;70.36;97020.17;597610;237;67867;-67
2023/09/23 05:17:32;;;;;;;;;;;;;;;21.75;70.42;97019.38;597545;237;65160;-67
2023/09/23 05:19:59;;;;;;;;;;;;;;;21.74;70.28;97029.25;597654;237;66178;-67
2023/09/23 05:22:27;;;;;;;;;;;;;;;21.74;69.98;97021.23;597576;237;68784;-67
2023/09/23 05:24:57;;;;;;;;;;;;;;;21.74;70.02;97031.92;597590;237;62922;-67
2023/09/23 05:27:24;;;;;;;;;;;;;;;21.75;69.80;97030.08;597602;237;68496;-67
2023/09/23 05:29:53;;;;;;;;;;;;;;;21.75;70.28;97038.10;597581;237;66247;-67
2023/09/23 05:32:20;;;;;;;;;;;;;;;21.76;70.46;97043.16;597573;237;65118;-67
2023/09/23 05:34:51;;;;;;;;;;;;;;;21.76;70.48;97047.72;597596;237;66149;-67
2023/09/23 05:37:17;;;;;;;;;;;;;;;21.75;70.55;97044.25;597535;237;68560;-67
2023/09/23 05:39:45;;;;;;;;;;;;;;;21.75;70.17;97038.90;597624;237;65027;-67
2023/09/23 05:42:15;;;;;;;;;;;;;;;21.74;70.10;97042.63;597588;237;65852;-67
2023/09/23 05:44:44;;;;;;;;;;;;;;;21.75;70.36;97041.57;597565;237;68290;-67
2023/09/23 05:47:11;;;;;;;;;;;;;;;21.75;70.93;97052.27;597613;237;62812;-67
2023/09/23 05:49:39;;;;;;;;;;;;;;;21.75;71.17;97054.95;597595;237;68813;-67
2023/09/23 05:52:06;;;;;;;;;;;;;;;21.75;71.04;97052.27;597576;237;69316;-67
2023/09/23 05:54:34;;;;;;;;;;;;;;;21.74;70.78;97045.30;597571;237;65089;-68
2023/09/23 05:57:02;;;;;;;;;;;;;;;21.75;70.70;97046.13;597568;237;68239;-67
2023/09/23 05:59:30;;;;;;;;;;;;;;;21.75;70.70;97043.45;597622;237;66265;-68
2023/09/23 06:01:58;;;;;;;;;;;;;;;21.75;70.72;97056.83;597573;237;64926;-68
2023/09/23 06:04:25;;;;;;;;;;;;;;;21.75;70.98;97046.92;597609;237;68406;-68
2023/09/23 06:06:54;;;;;;;;;;;;;;;21.75;70.30;97052.27;597599;237;68684;-68
2023/09/23 06:09:24;;;;;;;;;;;;;;;21.75;69.98;97054.16;597652;237;46421;-68
2023/09/23 06:11:52;;;;;;;;;;;;;;;21.75;69.27;97054.95;597585;237;68354;-68
2023/09/23 06:14:20;;;;;;;;;;;;;;;21.76;69.10;97045.05;597567;237;68461;-67
2023/09/23 06:16:48;;;;;;;;;;;;;;;21.76;70.13;97050.39;597595;237;63904;-67
2023/09/23 06:19:16;;;;;;;;;;;;;;;21.75;70.41;97057.63;597577;237;68348;-67
2023/09/23 06:21:43;;;;;;;;;;;;;;;21.73;69.14;97052.53;597594;237;68368;-67
2023/09/23 06:24:11;;;;;;;;;;;;;;;21.75;67.21;97052.27;597567;237;62763;-67
2023/09/23 06:26:38;;;;;;;;;;;;;;;21.76;68.28;97051.19;597653;237;66148;-67
2023/09/23 06:29:06;;;;;;;;;;;;;;;21.78;69.05;97050.92;597610;237;65860;-67
2023/09/23 06:31:34;;;;;;;;;;;;;;;21.77;69.19;97050.13;597577;237;62873;-67
2023/09/23 06:34:01;;;;;;;;;;;;;;;21.79;69.04;97049.84;597614;237;68239;-67
2023/09/23 06:36:29;;;;;;;;;;;;;;;21.79;69.23;97050.63;597556;237;66143;-68
2023/09/23 06:38:56;;;;;;;;;;;;;;;21.80;69.63;97043.41;597614;237;62745;-68
2023/09/23 06:41:24;;;;;;;;;;;;;;;21.80;70.32;97054.92;597622;237;68431;-68
2023/09/23 06:43:52;;;;;;;;;;;;;;;21.81;70.45;97042.34;597588;237;68106;-68
2023/09/23 06:46:21;;;;;;;;;;;;;;;21.81;70.49;97042.34;597615;237;65274;-68
2023/09/23 06:48:49;;;;;;;;;;;;;;;21.81;70.78;97045.02;586097;237;68582;-68
2023/09/23 06:51:16;;;;;;;;;;;;;;;21.81;71.06;97048.48;597576;237;68447;-68
2023/09/23 06:53:44;;;;;;;;;;;;;;;21.81;71.33;97045.81;597587;237;65027;-68
2023/09/23 06:56:11;;;;;;;;;;;;;;;21.82;71.37;97050.08;597581;237;69158;-68
2023/09/23 06:58:38;;;;;;;;;;;;;;;21.82;71.36;97052.75;597548;237;68414;-68
2023/09/23 07:01:06;;;;;;;;;;;;;;;21.82;71.29;97046.61;597559;237;62917;-68
2023/09/23 07:03:34;;;;;;;;;;;;;;;21.81;71.23;97051.16;597636;237;66335;-68
2023/09/23 07:06:02;;;;;;;;;;;;;;;21.81;71.13;97056.52;597544;237;66245;-68
2023/09/23 07:08:30;;;;;;;;;;;;;;;21.81;71.26;97051.16;597583;237;64710;-68
2023/09/23 07:10:57;;;;;;;;;;;;;;;21.82;71.08;97055.43;597559;237;68527;-68
2023/09/23 07:13:25;;;;;;;;;;;;;;;21.82;71.00;97051.96;597558;237;66268;-68
2023/09/23 07:15:52;;;;;;;;;;;;;;;21.84;70.89;97047.14;597626;237;62460;-68
2023/09/23 07:18:20;;;;;;;;;;;;;;;21.83;70.84;97054.38;597565;237;66145;-68
2023/09/23 07:20:47;;;;;;;;;;;;;;;21.84;70.78;97055.17;597558;237;66270;-68
2023/09/23 07:23:15;;;;;;;;;;;;;;;21.85;70.55;97064.78;597571;237;64914;-68
2023/09/23 07:25:43;;;;;;;;;;;;;;;21.85;70.52;97057.58;597557;237;68579;-68
2023/09/23 07:28:10;;;;;;;;;;;;;;;21.85;70.04;97057.58;597565;237;68430;-68
2023/09/23 07:30:38;;;;;;;;;;;;;;;21.86;69.64;97061.05;597628;237;64742;-68
2023/09/23 07:33:05;;;;;;;;;;;;;;;21.85;69.11;97057.58;595510;237;66218;-68
2023/09/23 07:35:34;;;;;;;;;;;;;;;21.87;68.56;97060.76;595459;238;69350;-68
2023/09/23 07:38:02;;;;;;;;;;;;;;;21.88;68.43;97056.20;595615;238;62978;-68
2023/09/23 07:40:30;;;;;;;;;;;;;;;21.88;68.33;97065.05;595568;238;70618;-68
2023/09/23 07:42:58;;;;;;;;;;;;;;;21.88;68.15;97062.38;595579;238;68324;-68
2023/09/23 07:45:25;;;;;;;;;;;;;;;21.89;68.04;97063.97;595526;238;62772;-68
2023/09/23 07:47:53;;;;;;;;;;;;;;;21.91;68.04;97056.47;595518;238;66419;-68
2023/09/23 07:50:21;;;;;;;;;;;;;;;21.91;68.13;97053.80;595512;238;69035;-68
2023/09/23 07:52:49;;;;;;;;;;;;;;;21.91;67.84;97061.83;595528;238;64925;-68
2023/09/23 07:55:17;;;;;;;;;;;;;;;21.91;67.64;97061.83;595525;238;66332;-68
2023/09/23 07:57:45;;;;;;;;;;;;;;;21.92;67.66;97055.39;595527;238;68640;-68
2023/09/23 08:00:12;;;;;;;;;;;;;;;21.92;67.63;97058.06;595505;238;62777;-68
2023/09/23 08:02:40;;;;;;;;;;;;;;;21.93;67.73;97059.68;595515;238;68795;-68
2023/09/23 08:05:08;;;;;;;;;;;;;;;21.94;67.58;97060.48;595589;238;68525;-68
2023/09/23 08:07:35;;;;;;;;;;;;;;;21.94;67.49;97055.12;595555;238;65043;-68
2023/09/23 08:10:04;;;;;;;;;;;;;;;21.95;67.61;97062.06;595541;238;68457;-68
2023/09/23 08:12:33;;;;;;;;;;;;;;;21.94;67.87;97058.59;595488;238;68896;-68
2023/09/23 08:15:00;;;;;;;;;;;;;;;21.95;67.68;97059.39;595518;238;64953;-68
2023/09/23 08:17:28;;;;;;;;;;;;;;;21.94;67.71;97061.27;595584;238;68969;-68
2023/09/23 08:19:55;;;;;;;;;;;;;;;21.95;67.70;97051.36;595530;238;66361;-68
2023/09/23 08:22:23;;;;;;;;;;;;;;;21.96;67.66;97050.27;595545;238;63030;-68
2023/09/23 08:24:50;;;;;;;;;;;;;;;21.96;67.75;97052.95;595542;238;66440;-68
2023/09/23 08:27:18;;;;;;;;;;;;;;;21.97;67.59;97056.45;595513;238;66141;-68
2023/09/23 08:29:45;;;;;;;;;;;;;;;21.97;67.62;97051.09;595595;238;62768;-68
2023/09/23 08:32:13;;;;;;;;;;;;;;;21.98;67.65;97055.36;596802;237;68801;-68
2023/09/23 08:34:40;;;;;;;;;;;;;;;21.98;67.57;97047.34;597546;237;66642;-68
2023/09/23 08:37:08;;;;;;;;;;;;;;;21.97;67.44;97049.22;597582;237;62505;-68
2023/09/23 08:39:36;;;;;;;;;;;;;;;21.98;67.37;97047.34;597514;237;69262;-68
2023/09/23 08:42:04;;;;;;;;;;;;;;;21.98;67.44;97044.66;597581;237;68693;-68
2023/09/23 08:44:33;;;;;;;;;;;;;;;21.99;67.33;97046.25;597621;237;65305;-68
2023/09/23 08:47:01;;;;;;;;;;;;;;;21.98;67.26;97047.34;597574;237;68829;-66
2023/09/23 08:49:29;;;;;;;;;;;;;;;21.99;67.34;97040.90;597548;237;68648;-66
2023/09/23 08:51:56;;;;;;;;;;;;;;;21.98;67.27;97037.42;597589;237;65100;-67
2023/09/23 08:54:28;;;;;;;;;;;;;;;22.00;67.25;97039.84;597517;237;68844;-67
2023/09/23 08:56:56;;;;;;;;;;;;;;;22.00;67.31;97032.61;597649;237;66136;-68
2023/09/23 08:59:26;;;;;;;;;;;;;;;22.00;67.47;97045.19;597599;237;65042;-67
2023/09/23 09:01:54;;;;;;;;;;;;;;;22.00;67.52;97034.48;597530;237;66475;-67
2023/09/23 09:04:21;;;;;;;;;;;;;;;22.00;67.33;97042.52;597514;237;69021;-67
2023/09/23 09:06:50;;;;;;;;;;;;;;;22.02;67.28;97035.02;597522;237;64980;-67
2023/09/23 09:09:17;;;;;;;;;;;;;;;22.01;67.30;97028.05;597637;237;66709;-67
2023/09/23 09:11:48;;;;;;;;;;;;;;;22.02;67.35;97029.66;597559;237;66500;-67
2023/09/23 09:14:16;;;;;;;;;;;;;;;22.02;67.28;97035.02;597568;237;62786;-67
2023/09/23 09:16:44;;;;;;;;;;;;;;;22.01;67.19;97030.72;597575;237;69050;-66
2023/09/23 09:19:11;;;;;;;;;;;;;;;22.02;67.13;97032.34;597537;237;68590;-66
2023/09/23 09:21:39;;;;;;;;;;;;;;;22.02;67.19;97024.31;597602;237;64897;-66
2023/09/23 09:24:07;;;;;;;;;;;;;;;22.02;67.21;97019.75;597602;237;68513;-66
2023/09/23 09:26:41;;;;;;;;;;;;;;;22.02;67.19;97013.61;597572;237;66717;-66
2023/09/23 09:29:08;;;;;;;;;;;;;;;22.01;67.29;97014.67;597554;237;62709;-66
2023/09/23 09:31:38;;;;;;;;;;;;;;;22.03;67.33;97023.23;597513;237;66639;-66
2023/09/23 09:34:08;;;;;;;;;;;;;;;22.02;67.25;97010.94;597532;237;68739;-66
2023/09/23 09:36:37;;;;;;;;;;;;;;;22.03;67.18;97013.31;597604;237;65860;-66
2023/09/23 09:39:10;;;;;;;;;;;;;;;22.03;67.17;97009.84;597581;237;68894;-66
2023/09/23 09:41:36;;;;;;;;;;;;;;;22.02;67.19;97003.70;597289;237;66675;-66
2023/09/23 09:44:05;;;;;;;;;;;;;;;22.03;67.16;97005.28;595751;237;62801;-66
2023/09/23 09:46:34;;;;;;;;;;;;;;;22.02;67.20;96998.34;597542;237;68888;-66
2023/09/23 09:49:04;;;;;;;;;;;;;;;22.04;67.19;97000.73;597557;237;68375;-66
2023/09/23 09:51:33;;;;;;;;;;;;;;;22.03;67.10;96993.79;597599;237;65131;-67
2023/09/23 09:54:01;;;;;;;;;;;;;;;22.04;67.11;96990.03;597515;237;68874;-67
2023/09/23 09:56:30;;;;;;;;;;;;;;;22.03;67.10;96986.55;597555;237;69434;-66
2023/09/23 09:58:59;;;;;;;;;;;;;;;22.04;67.14;96979.32;597541;237;62943;-66
2023/09/23 10:01:27;;;;;;;;;;;;;;;22.04;67.15;96979.32;597540;237;68898;-66
2023/09/23 10:03:54;;;;;;;;;;;;;;;22.04;67.09;96980.11;597606;237;66811;-66
2023/09/23 10:06:22;;;;;;;;;;;;;;;22.04;67.01;96973.97;597561;237;65203;-67
2023/09/23 10:08:51;;;;;;;;;;;;;;;22.04;67.02;96980.11;597548;237;66322;-66
2023/09/23 10:11:20;;;;;;;;;;;;;;;22.05;67.00;96972.91;597511;237;68341;-66
2023/09/23 10:13:48;;;;;;;;;;;;;;;22.04;66.99;96969.41;597186;237;65662;-66
2023/09/23 10:16:22;;;;;;;;;;;;;;;22.05;66.96;96971.03;597598;237;66606;-66
2023/09/23 10:18:48;;;;;;;;;;;;;;;22.05;66.90;96963.00;596970;237;66842;-66
2023/09/23 10:21:17;;;;;;;;;;;;;;;22.05;66.91;96962.20;597310;237;63710;-67
2023/09/23 10:23:46;;;;;;;;;;;;;;;22.05;67.04;96956.85;596900;237;68647;-67
2023/09/23 10:26:16;;;;;;;;;;;;;;;22.06;67.09;96961.11;597546;237;66458;-67
2023/09/23 10:28:45;;;;;;;;;;;;;;;22.05;67.14;96959.53;597565;237;63037;-67
2023/09/23 10:31:14;;;;;;;;;;;;;;;22.05;67.21;96949.62;597576;237;69222;-67
2023/09/23 10:33:42;;;;;;;;;;;;;;;22.04;67.31;96944.53;597574;237;66221;-67
2023/09/23 10:36:10;;;;;;;;;;;;;;;22.04;67.44;96939.18;597608;237;64849;-67
2023/09/23 10:38:38;;;;;;;;;;;;;;;22.04;68.02;96939.18;597217;237;65962;-67
2023/09/23 10:41:06;;;;;;;;;;;;;;;22.05;67.59;96948.83;597579;237;68349;-67
2023/09/23 10:43:34;;;;;;;;;;;;;;;22.05;67.77;96943.47;597600;237;62782;-67
2023/09/23 10:46:02;;;;;;;;;;;;;;;22.05;67.89;96943.47;597559;237;66726;-67
2023/09/23 10:48:32;;;;;;;;;;;;;;;22.05;67.58;96938.91;597584;237;68564;-67
2023/09/23 10:51:01;;;;;;;;;;;;;;;22.05;67.70;96935.45;597546;237;65092;-67
2023/09/23 10:53:28;;;;;;;;;;;;;;;22.05;67.68;96932.77;597547;237;68541;-67
2023/09/23 10:55:56;;;;;;;;;;;;;;;22.05;67.71;96933.56;597630;237;68553;-67
2023/09/23 10:58:24;;;;;;;;;;;;;;;22.06;68.03;96931.68;597589;237;63015;-67
2023/09/23 11:00:52;;;;;;;;;;;;;;;22.06;67.85;96929.00;597545;237;66216;-67
2023/09/23 11:03:22;;;;;;;;;;;;;;;22.05;67.65;96922.06;597544;237;68574;-67
2023/09/23 11:05:51;;;;;;;;;;;;;;;22.06;67.71;96920.98;597554;237;62853;-67
2023/09/23 11:08:18;;;;;;;;;;;;;;;22.06;67.67;96920.98;597513;237;68866;-67
2023/09/23 11:10:47;;;;;;;;;;;;;;;22.06;67.96;96915.63;597610;237;68520;-67
2023/09/23 11:13:15;;;;;;;;;;;;;;;22.07;67.99;96909.18;597599;237;62876;-65
2023/09/23 11:15:45;;;;;;;;;;;;;;;22.06;68.04;96908.39;597570;237;69098;-66
2023/09/23 11:18:14;;;;;;;;;;;;;;;22.06;67.68;96912.95;597565;237;68846;-65
2023/09/23 11:20:42;;;;;;;;;;;;;;;22.06;67.58;96897.69;597566;237;64966;-67
2023/09/23 11:23:11;;;;;;;;;;;;;;;22.07;67.99;96895.80;597620;237;66536;-67
2023/09/23 11:25:41;;;;;;;;;;;;;;;22.06;68.00;96894.22;597598;237;68547;-67
2023/09/23 11:28:10;;;;;;;;;;;;;;;22.06;67.86;96896.89;597592;237;62749;-67
2023/09/23 11:30:37;;;;;;;;;;;;;;;22.07;67.78;96887.77;597355;237;66492;-68
2023/09/23 11:33:05;;;;;;;;;;;;;;;22.06;67.59;96881.63;595517;237;69135;-67
2023/09/23 11:35:33;;;;;;;;;;;;;;;22.06;67.86;96876.27;595538;238;64947;-68
2023/09/23 11:38:01;;;;;;;;;;;;;;;22.07;67.65;96871.72;595582;238;68761;-68
2023/09/23 11:40:30;;;;;;;;;;;;;;;22.06;67.62;96873.59;595543;238;66538;-67
2023/09/23 11:42:58;;;;;;;;;;;;;;;22.07;67.38;96871.72;595518;238;65025;-67
2023/09/23 11:45:26;;;;;;;;;;;;;;;22.07;67.22;96871.72;595527;238;68831;-67
2023/09/23 11:47:57;;;;;;;;;;;;;;;22.07;67.34;96867.19;595540;238;66366;-67
2023/09/23 11:50:24;;;;;;;;;;;;;;;22.08;67.32;96865.30;595602;238;65750;-67
2023/09/23 11:52:55;;;;;;;;;;;;;;;22.08;67.42;96857.27;595513;238;68523;-67
2023/09/23 11:55:23;;;;;;;;;;;;;;;22.08;67.49;96851.92;595526;238;66268;-67
2023/09/23 11:57:51;;;;;;;;;;;;;;;22.08;67.54;96851.92;595510;238;62635;-67
2023/09/23 12:00:20;;;;;;;;;;;;;;;22.09;67.30;96856.19;595534;238;66921;-67
2023/09/23 12:02:52;;;;;;;;;;;;;;;22.09;67.32;96848.16;595588;238;68573;-67
2023/09/23 12:05:17;;;;;;;;;;;;;;;22.09;67.48;96845.48;595369;238;65116;-67
2023/09/23 12:07:45;;;;;;;;;;;;;;;22.09;67.37;96848.16;595501;238;68649;-67
2023/09/23 12:10:15;;;;;;;;;;;;;;;22.10;67.38;96841.74;595491;238;68730;-68
2023/09/23 12:12:43;;;;;;;;;;;;;;;22.09;67.31;96848.16;595523;238;62960;-68
2023/09/23 12:15:11;;;;;;;;;;;;;;;22.09;67.19;96848.95;595579;238;66755;-68
2023/09/23 12:17:38;;;;;;;;;;;;;;;22.10;67.01;96847.09;595569;238;66735;-67
2023/09/23 12:20:10;;;;;;;;;;;;;;;22.10;67.09;96852.45;595551;238;65224;-68
2023/09/23 12:22:38;;;;;;;;;;;;;;;22.11;67.15;96837.97;595498;238;66648;-68
2023/09/23 12:25:06;;;;;;;;;;;;;;;22.09;67.18;96837.45;595522;238;68824;-67
2023/09/23 12:27:34;;;;;;;;;;;;;;;22.10;67.17;96829.16;595548;238;65088;-68
2023/09/23 12:30:02;;;;;;;;;;;;;;;22.10;67.04;96839.06;595584;238;68407;-68
2023/09/23 12:32:30;;;;;;;;;;;;;;;22.11;67.02;96835.30;597023;237;66646;-68
2023/09/23 12:34:58;;;;;;;;;;;;;;;22.10;66.92;96828.36;597547;237;65070;-68
2023/09/23 12:37:30;;;;;;;;;;;;;;;22.11;66.90;96827.27;597574;237;66561;-67
2023/09/23 12:39:57;;;;;;;;;;;;;;;22.11;67.04;96827.27;597602;237;68897;-67
2023/09/23 12:42:25;;;;;;;;;;;;;;;22.11;66.84;96829.95;597611;237;64928;-67
2023/09/23 12:44:53;;;;;;;;;;;;;;;22.12;66.90;96834.20;597555;237;68623;-67
2023/09/23 12:47:20;;;;;;;;;;;;;;;22.11;66.83;96822.70;597527;237;68933;-67
2023/09/23 12:49:49;;;;;;;;;;;;;;;22.12;66.75;96823.50;597519;237;65038;-67
2023/09/23 12:52:16;;;;;;;;;;;;;;;22.12;66.79;96824.30;597577;237;66420;-67